sensor_id;sensor_type;location;lat;lon;timestamp;temperature;humidity
26821;DHT22;37186;51.394;5.454;2023-07-31T00:00:45;20.00;74.70
26821;DHT22;37186;51.394;5.454;2023-07-31T00:03:46;20.00;74.50
26821;DHT22;37186;51.394;5.454;2023-07-31T00:06:47;20.00;74.70
26821;DHT22;37186;51.394;5.454;2023-07-31T00:09:48;20.00;74.70
26821;DHT22;37186;51.394;5.454;2023-07-31T00:12:48;20.00;75.00
26821;DHT22;37186;51.394;5.454;2023-07-31T00:15:49;19.90;74.70
26821;DHT22;37186;51.394;5.454;2023-07-31T00:18:49;19.90;74.60
26821;DHT22;37186;51.394;5.454;2023-07-31T00:21:50;19.90;74.70
26821;DHT22;37186;51.394;5.454;2023-07-31T00:24:51;19.90;75.00
26821;DHT22;37186;51.394;5.454;2023-07-31T00:27:51;19.90;75.20
26821;DHT22;37186;51.394;5.454;2023-07-31T00:30:52;20.00;74.70
26821;DHT22;37186;51.394;5.454;2023-07-31T00:33:52;19.90;74.90
26821;DHT22;37186;51.394;5.454;2023-07-31T00:36:53;19.90;74.80
26821;DHT22;37186;51.394;5.454;2023-07-31T00:39:54;19.90;74.90
26821;DHT22;37186;51.394;5.454;2023-07-31T00:42:54;19.90;74.80
26821;DHT22;37186;51.394;5.454;2023-07-31T00:45:55;19.90;74.90
26821;DHT22;37186;51.394;5.454;2023-07-31T00:48:56;19.90;75.00
26821;DHT22;37186;51.394;5.454;2023-07-31T00:51:57;19.90;75.00
26821;DHT22;37186;51.394;5.454;2023-07-31T00:54:59;19.80;75.00
26821;DHT22;37186;51.394;5.454;2023-07-31T00:57:59;19.90;75.10
26821;DHT22;37186;51.394;5.454;2023-07-31T01:01:00;19.80;75.00
26821;DHT22;37186;51.394;5.454;2023-07-31T01:04:00;19.80;74.80
26821;DHT22;37186;51.394;5.454;2023-07-31T01:07:22;19.80;75.10
26821;DHT22;37186;51.394;5.454;2023-07-31T01:10:28;19.80;75.20
26821;DHT22;37186;51.394;5.454;2023-07-31T01:13:30;19.80;75.00
26821;DHT22;37186;51.394;5.454;2023-07-31T01:16:30;19.80;74.80
26821;DHT22;37186;51.394;5.454;2023-07-31T01:19:31;19.80;74.70
26821;DHT22;37186;51.394;5.454;2023-07-31T01:26:14;19.70;75.10
26821;DHT22;37186;51.394;5.454;2023-07-31T01:32:32;19.70;75.10
26821;DHT22;37186;51.394;5.454;2023-07-31T01:35:37;19.70;75.20
26821;DHT22;37186;51.394;5.454;2023-07-31T01:38:37;19.60;74.90
26821;DHT22;37186;51.394;5.454;2023-07-31T01:41:38;19.70;75.10
26821;DHT22;37186;51.394;5.454;2023-07-31T01:44:38;19.60;74.90
26821;DHT22;37186;51.394;5.454;2023-07-31T01:47:39;19.60;74.70
26821;DHT22;37186;51.394;5.454;2023-07-31T01:50:40;19.60;74.70
26821;DHT22;37186;51.394;5.454;2023-07-31T01:53:40;19.60;75.00
26821;DHT22;37186;51.394;5.454;2023-07-31T01:56:41;19.50;74.70
26821;DHT22;37186;51.394;5.454;2023-07-31T01:59:41;19.50;74.80
26821;DHT22;37186;51.394;5.454;2023-07-31T02:02:42;19.60;75.10
26821;DHT22;37186;51.394;5.454;2023-07-31T02:05:49;19.50;74.80
26821;DHT22;37186;51.394;5.454;2023-07-31T02:08:50;19.50;74.80
26821;DHT22;37186;51.394;5.454;2023-07-31T02:11:50;19.50;74.90
26821;DHT22;37186;51.394;5.454;2023-07-31T02:14:51;19.50;74.80
26821;DHT22;37186;51.394;5.454;2023-07-31T02:17:51;19.50;74.80
26821;DHT22;37186;51.394;5.454;2023-07-31T02:20:52;19.50;75.20
26821;DHT22;37186;51.394;5.454;2023-07-31T02:23:53;19.50;75.10
26821;DHT22;37186;51.394;5.454;2023-07-31T02:26:53;19.50;74.90
26821;DHT22;37186;51.394;5.454;2023-07-31T02:29:54;19.40;75.00
26821;DHT22;37186;51.394;5.454;2023-07-31T02:32:55;19.40;74.90
26821;DHT22;37186;51.394;5.454;2023-07-31T02:35:55;19.40;75.00
26821;DHT22;37186;51.394;5.454;2023-07-31T02:38:56;19.40;75.00
26821;DHT22;37186;51.394;5.454;2023-07-31T02:41:57;19.40;75.00
26821;DHT22;37186;51.394;5.454;2023-07-31T02:44:57;19.40;75.00
26821;DHT22;37186;51.394;5.454;2023-07-31T02:47:58;19.40;75.00
26821;DHT22;37186;51.394;5.454;2023-07-31T02:50:58;19.40;75.00
26821;DHT22;37186;51.394;5.454;2023-07-31T02:53:59;19.30;75.00
26821;DHT22;37186;51.394;5.454;2023-07-31T02:56:59;19.30;75.00
26821;DHT22;37186;51.394;5.454;2023-07-31T03:00:00;19.30;75.00
26821;DHT22;37186;51.394;5.454;2023-07-31T03:03:00;19.30;75.00
26821;DHT22;37186;51.394;5.454;2023-07-31T03:06:01;19.30;74.90
26821;DHT22;37186;51.394;5.454;2023-07-31T03:09:01;19.30;75.00
26821;DHT22;37186;51.394;5.454;2023-07-31T03:12:02;19.30;75.20
26821;DHT22;37186;51.394;5.454;2023-07-31T03:15:04;19.30;75.30
26821;DHT22;37186;51.394;5.454;2023-07-31T03:18:04;19.30;75.00
26821;DHT22;37186;51.394;5.454;2023-07-31T03:21:05;19.30;75.20
26821;DHT22;37186;51.394;5.454;2023-07-31T03:24:05;19.30;75.40
26821;DHT22;37186;51.394;5.454;2023-07-31T03:27:06;19.30;75.20
26821;DHT22;37186;51.394;5.454;2023-07-31T03:30:07;19.30;75.00
26821;DHT22;37186;51.394;5.454;2023-07-31T03:33:07;19.30;75.00
26821;DHT22;37186;51.394;5.454;2023-07-31T03:36:08;19.30;75.20
26821;DHT22;37186;51.394;5.454;2023-07-31T03:39:09;19.30;75.20
26821;DHT22;37186;51.394;5.454;2023-07-31T03:42:09;19.30;75.00
26821;DHT22;37186;51.394;5.454;2023-07-31T03:45:10;19.30;75.00
26821;DHT22;37186;51.394;5.454;2023-07-31T03:48:10;19.30;75.00
26821;DHT22;37186;51.394;5.454;2023-07-31T03:51:11;19.30;75.20
26821;DHT22;37186;51.394;5.454;2023-07-31T03:54:11;19.30;75.10
26821;DHT22;37186;51.394;5.454;2023-07-31T03:57:13;19.30;75.00
26821;DHT22;37186;51.394;5.454;2023-07-31T04:00:14;19.30;75.00
26821;DHT22;37186;51.394;5.454;2023-07-31T04:03:14;19.30;75.30
26821;DHT22;37186;51.394;5.454;2023-07-31T04:06:23;19.30;75.00
26821;DHT22;37186;51.394;5.454;2023-07-31T04:09:24;19.40;75.40
26821;DHT22;37186;51.394;5.454;2023-07-31T04:12:24;19.30;75.30
26821;DHT22;37186;51.394;5.454;2023-07-31T04:15:25;19.30;75.10
26821;DHT22;37186;51.394;5.454;2023-07-31T04:18:25;19.30;75.10
26821;DHT22;37186;51.394;5.454;2023-07-31T04:21:26;19.40;75.20
26821;DHT22;37186;51.394;5.454;2023-07-31T04:24:27;19.40;75.40
26821;DHT22;37186;51.394;5.454;2023-07-31T04:27:27;19.40;75.70
26821;DHT22;37186;51.394;5.454;2023-07-31T04:30:28;19.40;75.30
26821;DHT22;37186;51.394;5.454;2023-07-31T04:33:28;19.40;75.50
26821;DHT22;37186;51.394;5.454;2023-07-31T04:36:29;19.40;75.40
26821;DHT22;37186;51.394;5.454;2023-07-31T04:39:30;19.40;76.30
26821;DHT22;37186;51.394;5.454;2023-07-31T04:42:30;19.40;75.40
26821;DHT22;37186;51.394;5.454;2023-07-31T04:45:31;19.40;75.40
26821;DHT22;37186;51.394;5.454;2023-07-31T04:48:31;19.40;75.40
26821;DHT22;37186;51.394;5.454;2023-07-31T04:51:32;19.40;75.40
26821;DHT22;37186;51.394;5.454;2023-07-31T04:54:32;19.40;75.70
26821;DHT22;37186;51.394;5.454;2023-07-31T04:57:33;19.40;75.70
26821;DHT22;37186;51.394;5.454;2023-07-31T05:00:33;19.40;75.60
26821;DHT22;37186;51.394;5.454;2023-07-31T05:03:34;19.50;75.70
26821;DHT22;37186;51.394;5.454;2023-07-31T05:06:34;19.40;75.50
26821;DHT22;37186;51.394;5.454;2023-07-31T05:09:35;19.40;75.90
26821;DHT22;37186;51.394;5.454;2023-07-31T05:12:36;19.40;75.80
26821;DHT22;37186;51.394;5.454;2023-07-31T05:15:36;19.50;76.00
26821;DHT22;37186;51.394;5.454;2023-07-31T05:18:37;19.40;76.10
26821;DHT22;37186;51.394;5.454;2023-07-31T05:21:37;19.40;75.70
26821;DHT22;37186;51.394;5.454;2023-07-31T05:24:38;19.40;76.20
26821;DHT22;37186;51.394;5.454;2023-07-31T05:27:38;19.40;75.80
26821;DHT22;37186;51.394;5.454;2023-07-31T05:30:39;19.40;75.90
26821;DHT22;37186;51.394;5.454;2023-07-31T05:33:39;19.40;76.00
26821;DHT22;37186;51.394;5.454;2023-07-31T05:36:40;19.40;75.80
26821;DHT22;37186;51.394;5.454;2023-07-31T05:39:41;19.40;75.70
26821;DHT22;37186;51.394;5.454;2023-07-31T05:42:41;19.50;75.80
26821;DHT22;37186;51.394;5.454;2023-07-31T05:45:42;19.50;75.90
26821;DHT22;37186;51.394;5.454;2023-07-31T05:48:43;19.40;75.80
26821;DHT22;37186;51.394;5.454;2023-07-31T05:51:43;19.40;75.80
26821;DHT22;37186;51.394;5.454;2023-07-31T05:54:44;19.40;75.90
26821;DHT22;37186;51.394;5.454;2023-07-31T05:57:46;19.50;75.80
26821;DHT22;37186;51.394;5.454;2023-07-31T06:00:46;19.40;75.80
26821;DHT22;37186;51.394;5.454;2023-07-31T06:03:47;19.40;75.90
26821;DHT22;37186;51.394;5.454;2023-07-31T06:06:48;19.50;75.90
26821;DHT22;37186;51.394;5.454;2023-07-31T06:09:48;19.50;75.90
26821;DHT22;37186;51.394;5.454;2023-07-31T06:12:49;19.50;76.20
26821;DHT22;37186;51.394;5.454;2023-07-31T06:15:50;19.50;76.30
26821;DHT22;37186;51.394;5.454;2023-07-31T06:18:51;19.50;76.00
26821;DHT22;37186;51.394;5.454;2023-07-31T06:21:52;19.50;76.20
26821;DHT22;37186;51.394;5.454;2023-07-31T06:24:52;19.50;76.30
26821;DHT22;37186;51.394;5.454;2023-07-31T06:27:53;19.50;76.30
26821;DHT22;37186;51.394;5.454;2023-07-31T06:30:53;19.50;76.20
26821;DHT22;37186;51.394;5.454;2023-07-31T06:33:54;19.50;76.40
26821;DHT22;37186;51.394;5.454;2023-07-31T06:36:55;19.50;76.20
26821;DHT22;37186;51.394;5.454;2023-07-31T06:39:56;19.50;76.70
26821;DHT22;37186;51.394;5.454;2023-07-31T06:42:57;19.50;76.60
26821;DHT22;37186;51.394;5.454;2023-07-31T06:45:57;19.50;76.50
26821;DHT22;37186;51.394;5.454;2023-07-31T06:48:58;19.40;76.30
26821;DHT22;37186;51.394;5.454;2023-07-31T06:51:58;19.50;77.00
26821;DHT22;37186;51.394;5.454;2023-07-31T06:55:21;19.50;76.70
26821;DHT22;37186;51.394;5.454;2023-07-31T06:58:22;19.50;76.60
26821;DHT22;37186;51.394;5.454;2023-07-31T07:01:23;19.50;77.90
26821;DHT22;37186;51.394;5.454;2023-07-31T07:04:23;19.50;76.80
26821;DHT22;37186;51.394;5.454;2023-07-31T07:07:24;19.50;76.70
26821;DHT22;37186;51.394;5.454;2023-07-31T07:10:24;19.50;76.80
26821;DHT22;37186;51.394;5.454;2023-07-31T07:13:25;19.50;76.90
26821;DHT22;37186;51.394;5.454;2023-07-31T07:16:25;19.50;77.20
26821;DHT22;37186;51.394;5.454;2023-07-31T07:19:26;19.50;76.90
26821;DHT22;37186;51.394;5.454;2023-07-31T07:22:27;19.40;77.00
26821;DHT22;37186;51.394;5.454;2023-07-31T07:25:27;19.50;77.40
26821;DHT22;37186;51.394;5.454;2023-07-31T07:28:28;19.50;77.20
26821;DHT22;37186;51.394;5.454;2023-07-31T07:31:29;19.50;77.10
26821;DHT22;37186;51.394;5.454;2023-07-31T07:34:29;19.50;77.30
26821;DHT22;37186;51.394;5.454;2023-07-31T07:37:30;19.60;77.60
26821;DHT22;37186;51.394;5.454;2023-07-31T07:40:30;19.50;77.30
26821;DHT22;37186;51.394;5.454;2023-07-31T07:43:31;19.60;77.30
26821;DHT22;37186;51.394;5.454;2023-07-31T07:46:31;19.60;77.90
26821;DHT22;37186;51.394;5.454;2023-07-31T07:49:35;19.60;77.70
26821;DHT22;37186;51.394;5.454;2023-07-31T07:52:36;19.60;77.60
26821;DHT22;37186;51.394;5.454;2023-07-31T07:55:36;19.60;77.40
26821;DHT22;37186;51.394;5.454;2023-07-31T07:58:37;19.60;77.40
26821;DHT22;37186;51.394;5.454;2023-07-31T08:01:38;19.60;78.10
26821;DHT22;37186;51.394;5.454;2023-07-31T08:04:38;19.60;77.90
26821;DHT22;37186;51.394;5.454;2023-07-31T08:07:39;19.60;77.40
26821;DHT22;37186;51.394;5.454;2023-07-31T08:10:39;19.60;77.40
26821;DHT22;37186;51.394;5.454;2023-07-31T08:13:40;19.60;77.30
26821;DHT22;37186;51.394;5.454;2023-07-31T08:16:40;19.60;77.40
26821;DHT22;37186;51.394;5.454;2023-07-31T08:19:41;19.60;77.90
26821;DHT22;37186;51.394;5.454;2023-07-31T08:22:41;19.60;78.10
26821;DHT22;37186;51.394;5.454;2023-07-31T08:25:42;19.60;77.40
26821;DHT22;37186;51.394;5.454;2023-07-31T08:28:43;19.60;78.30
26821;DHT22;37186;51.394;5.454;2023-07-31T08:31:43;19.60;77.80
26821;DHT22;37186;51.394;5.454;2023-07-31T08:34:44;19.60;77.70
26821;DHT22;37186;51.394;5.454;2023-07-31T08:37:44;19.70;77.90
26821;DHT22;37186;51.394;5.454;2023-07-31T08:40:45;19.70;78.00
26821;DHT22;37186;51.394;5.454;2023-07-31T08:43:46;19.70;77.80
26821;DHT22;37186;51.394;5.454;2023-07-31T08:46:47;19.70;78.30
26821;DHT22;37186;51.394;5.454;2023-07-31T08:49:48;19.70;78.10
26821;DHT22;37186;51.394;5.454;2023-07-31T08:52:51;19.70;77.70
26821;DHT22;37186;51.394;5.454;2023-07-31T08:55:52;19.70;78.00
26821;DHT22;37186;51.394;5.454;2023-07-31T08:58:55;19.70;78.10
26821;DHT22;37186;51.394;5.454;2023-07-31T09:01:58;19.70;78.30
26821;DHT22;37186;51.394;5.454;2023-07-31T09:05:01;19.70;78.10
26821;DHT22;37186;51.394;5.454;2023-07-31T09:08:04;19.70;77.70
26821;DHT22;37186;51.394;5.454;2023-07-31T09:11:05;19.70;78.40
26821;DHT22;37186;51.394;5.454;2023-07-31T09:14:07;19.70;77.80
26821;DHT22;37186;51.394;5.454;2023-07-31T09:17:09;19.70;77.90
26821;DHT22;37186;51.394;5.454;2023-07-31T09:20:16;19.70;78.10
26821;DHT22;37186;51.394;5.454;2023-07-31T09:23:17;19.80;78.00
26821;DHT22;37186;51.394;5.454;2023-07-31T09:26:35;19.80;78.30
26821;DHT22;37186;51.394;5.454;2023-07-31T09:29:36;19.80;78.20
26821;DHT22;37186;51.394;5.454;2023-07-31T09:32:37;19.80;78.60
26821;DHT22;37186;51.394;5.454;2023-07-31T09:35:38;19.80;78.20
26821;DHT22;37186;51.394;5.454;2023-07-31T09:38:40;19.80;78.40
26821;DHT22;37186;51.394;5.454;2023-07-31T09:41:46;19.90;78.40
26821;DHT22;37186;51.394;5.454;2023-07-31T09:44:47;19.90;78.40
26821;DHT22;37186;51.394;5.454;2023-07-31T09:47:48;19.90;78.40
26821;DHT22;37186;51.394;5.454;2023-07-31T09:50:49;19.90;78.60
26821;DHT22;37186;51.394;5.454;2023-07-31T09:53:50;20.00;78.40
26821;DHT22;37186;51.394;5.454;2023-07-31T09:56:51;19.90;78.30
26821;DHT22;37186;51.394;5.454;2023-07-31T09:59:52;19.90;78.60
26821;DHT22;37186;51.394;5.454;2023-07-31T10:02:54;19.90;78.40
26821;DHT22;37186;51.394;5.454;2023-07-31T10:06:00;20.00;78.50
26821;DHT22;37186;51.394;5.454;2023-07-31T10:09:02;20.00;78.60
26821;DHT22;37186;51.394;5.454;2023-07-31T10:12:05;20.00;78.30
26821;DHT22;37186;51.394;5.454;2023-07-31T10:15:10;20.00;78.30
26821;DHT22;37186;51.394;5.454;2023-07-31T10:18:11;20.00;78.40
26821;DHT22;37186;51.394;5.454;2023-07-31T10:21:14;20.00;78.40
26821;DHT22;37186;51.394;5.454;2023-07-31T10:24:15;20.00;78.40
26821;DHT22;37186;51.394;5.454;2023-07-31T10:27:16;20.10;78.70
26821;DHT22;37186;51.394;5.454;2023-07-31T10:30:18;20.10;79.00
26821;DHT22;37186;51.394;5.454;2023-07-31T10:33:19;20.00;78.50
26821;DHT22;37186;51.394;5.454;2023-07-31T10:36:20;20.10;78.60
26821;DHT22;37186;51.394;5.454;2023-07-31T10:39:35;20.10;78.60
26821;DHT22;37186;51.394;5.454;2023-07-31T10:42:38;20.10;78.50
26821;DHT22;37186;51.394;5.454;2023-07-31T10:45:44;20.10;78.60
26821;DHT22;37186;51.394;5.454;2023-07-31T10:48:45;20.10;79.00
26821;DHT22;37186;51.394;5.454;2023-07-31T10:51:47;20.10;78.90
26821;DHT22;37186;51.394;5.454;2023-07-31T10:54:49;20.20;78.80
26821;DHT22;37186;51.394;5.454;2023-07-31T10:57:50;20.20;79.10
26821;DHT22;37186;51.394;5.454;2023-07-31T11:00:55;20.20;79.40
26821;DHT22;37186;51.394;5.454;2023-07-31T11:03:56;20.30;79.10
26821;DHT22;37186;51.394;5.454;2023-07-31T11:07:01;20.30;79.20
26821;DHT22;37186;51.394;5.454;2023-07-31T11:10:03;20.40;79.20
26821;DHT22;37186;51.394;5.454;2023-07-31T11:13:05;20.40;79.80
26821;DHT22;37186;51.394;5.454;2023-07-31T11:16:06;20.50;80.20
26821;DHT22;37186;51.394;5.454;2023-07-31T11:19:08;20.50;79.60
26821;DHT22;37186;51.394;5.454;2023-07-31T11:22:09;20.50;79.40
26821;DHT22;37186;51.394;5.454;2023-07-31T11:25:09;20.50;79.10
26821;DHT22;37186;51.394;5.454;2023-07-31T11:28:13;20.60;79.20
26821;DHT22;37186;51.394;5.454;2023-07-31T11:31:14;20.60;79.20
26821;DHT22;37186;51.394;5.454;2023-07-31T11:34:14;20.70;79.30
26821;DHT22;37186;51.394;5.454;2023-07-31T11:37:15;20.70;79.20
26821;DHT22;37186;51.394;5.454;2023-07-31T11:40:16;20.70;79.20
26821;DHT22;37186;51.394;5.454;2023-07-31T11:43:18;20.70;79.10
26821;DHT22;37186;51.394;5.454;2023-07-31T11:46:18;20.70;79.60
26821;DHT22;37186;51.394;5.454;2023-07-31T11:49:19;20.70;79.00
26821;DHT22;37186;51.394;5.454;2023-07-31T11:52:21;20.70;79.00
26821;DHT22;37186;51.394;5.454;2023-07-31T11:55:24;20.70;78.90
26821;DHT22;37186;51.394;5.454;2023-07-31T11:58:25;20.70;79.20
26821;DHT22;37186;51.394;5.454;2023-07-31T12:01:26;20.70;78.80
26821;DHT22;37186;51.394;5.454;2023-07-31T12:04:28;20.70;78.80
26821;DHT22;37186;51.394;5.454;2023-07-31T12:07:46;20.70;78.80
26821;DHT22;37186;51.394;5.454;2023-07-31T12:10:46;20.70;78.70
26821;DHT22;37186;51.394;5.454;2023-07-31T12:13:48;20.70;79.20
26821;DHT22;37186;51.394;5.454;2023-07-31T12:16:56;20.70;79.20
26821;DHT22;37186;51.394;5.454;2023-07-31T12:19:57;20.70;78.80
26821;DHT22;37186;51.394;5.454;2023-07-31T12:22:57;20.70;78.90
26821;DHT22;37186;51.394;5.454;2023-07-31T12:26:15;20.70;78.80
26821;DHT22;37186;51.394;5.454;2023-07-31T12:29:16;20.80;78.90
26821;DHT22;37186;51.394;5.454;2023-07-31T12:32:23;20.80;79.30
26821;DHT22;37186;51.394;5.454;2023-07-31T12:35:30;20.80;79.00
26821;DHT22;37186;51.394;5.454;2023-07-31T12:38:34;20.80;79.30
26821;DHT22;37186;51.394;5.454;2023-07-31T12:41:35;20.80;79.10
26821;DHT22;37186;51.394;5.454;2023-07-31T12:44:36;20.80;79.80
26821;DHT22;37186;51.394;5.454;2023-07-31T12:47:36;20.80;79.10
26821;DHT22;37186;51.394;5.454;2023-07-31T12:50:37;20.80;79.00
26821;DHT22;37186;51.394;5.454;2023-07-31T12:53:37;20.80;79.20
26821;DHT22;37186;51.394;5.454;2023-07-31T12:56:38;20.80;79.10
26821;DHT22;37186;51.394;5.454;2023-07-31T12:59:38;20.90;79.10
26821;DHT22;37186;51.394;5.454;2023-07-31T13:02:39;20.90;79.20
26821;DHT22;37186;51.394;5.454;2023-07-31T13:05:39;20.90;79.10
26821;DHT22;37186;51.394;5.454;2023-07-31T13:08:40;20.90;79.10
26821;DHT22;37186;51.394;5.454;2023-07-31T13:11:41;20.90;79.00
26821;DHT22;37186;51.394;5.454;2023-07-31T13:14:41;20.90;79.00
26821;DHT22;37186;51.394;5.454;2023-07-31T13:17:42;21.00;78.90
26821;DHT22;37186;51.394;5.454;2023-07-31T13:20:42;21.00;78.90
26821;DHT22;37186;51.394;5.454;2023-07-31T13:23:43;21.00;79.10
26821;DHT22;37186;51.394;5.454;2023-07-31T13:26:43;21.00;78.90
26821;DHT22;37186;51.394;5.454;2023-07-31T13:29:45;21.00;79.10
26821;DHT22;37186;51.394;5.454;2023-07-31T13:32:45;21.00;78.90
26821;DHT22;37186;51.394;5.454;2023-07-31T13:35:46;21.00;79.10
26821;DHT22;37186;51.394;5.454;2023-07-31T13:38:46;21.00;79.00
26821;DHT22;37186;51.394;5.454;2023-07-31T13:41:47;21.00;79.00
26821;DHT22;37186;51.394;5.454;2023-07-31T13:44:47;21.00;79.20
26821;DHT22;37186;51.394;5.454;2023-07-31T13:47:49;21.00;79.00
26821;DHT22;37186;51.394;5.454;2023-07-31T13:50:50;21.00;78.90
26821;DHT22;37186;51.394;5.454;2023-07-31T13:53:50;21.00;78.80
26821;DHT22;37186;51.394;5.454;2023-07-31T13:56:51;21.00;78.90
26821;DHT22;37186;51.394;5.454;2023-07-31T13:59:52;21.00;78.80
26821;DHT22;37186;51.394;5.454;2023-07-31T14:02:53;21.00;78.80
26821;DHT22;37186;51.394;5.454;2023-07-31T14:05:53;21.00;78.80
26821;DHT22;37186;51.394;5.454;2023-07-31T14:08:55;21.00;78.70
26821;DHT22;37186;51.394;5.454;2023-07-31T14:11:56;21.00;79.60
26821;DHT22;37186;51.394;5.454;2023-07-31T14:14:56;21.00;78.90
26821;DHT22;37186;51.394;5.454;2023-07-31T14:17:57;21.00;78.80
26821;DHT22;37186;51.394;5.454;2023-07-31T14:20:58;21.00;79.60
26821;DHT22;37186;51.394;5.454;2023-07-31T14:23:58;21.10;79.00
26821;DHT22;37186;51.394;5.454;2023-07-31T14:26:59;21.10;79.30
26821;DHT22;37186;51.394;5.454;2023-07-31T14:29:59;21.00;79.00
26821;DHT22;37186;51.394;5.454;2023-07-31T14:33:01;21.00;78.90
26821;DHT22;37186;51.394;5.454;2023-07-31T14:36:02;21.00;79.30
26821;DHT22;37186;51.394;5.454;2023-07-31T14:39:03;21.10;79.00
26821;DHT22;37186;51.394;5.454;2023-07-31T14:42:04;21.00;79.00
26821;DHT22;37186;51.394;5.454;2023-07-31T14:45:05;21.10;79.10
26821;DHT22;37186;51.394;5.454;2023-07-31T14:48:06;21.10;79.40
26821;DHT22;37186;51.394;5.454;2023-07-31T14:51:07;21.00;79.00
26821;DHT22;37186;51.394;5.454;2023-07-31T14:54:07;21.10;79.20
26821;DHT22;37186;51.394;5.454;2023-07-31T14:57:09;21.00;79.20
26821;DHT22;37186;51.394;5.454;2023-07-31T15:00:09;21.10;79.20
26821;DHT22;37186;51.394;5.454;2023-07-31T15:03:10;21.10;79.20
26821;DHT22;37186;51.394;5.454;2023-07-31T15:06:11;21.10;79.40
26821;DHT22;37186;51.394;5.454;2023-07-31T15:09:13;21.00;79.20
26821;DHT22;37186;51.394;5.454;2023-07-31T15:12:13;21.00;79.50
26821;DHT22;37186;51.394;5.454;2023-07-31T15:15:15;21.00;79.10
26821;DHT22;37186;51.394;5.454;2023-07-31T15:18:15;21.00;79.20
26821;DHT22;37186;51.394;5.454;2023-07-31T15:21:16;21.00;79.30
26821;DHT22;37186;51.394;5.454;2023-07-31T15:24:17;21.00;80.00
26821;DHT22;37186;51.394;5.454;2023-07-31T15:27:17;21.00;79.10
26821;DHT22;37186;51.394;5.454;2023-07-31T15:30:18;21.00;79.10
26821;DHT22;37186;51.394;5.454;2023-07-31T15:33:18;21.00;79.60
26821;DHT22;37186;51.394;5.454;2023-07-31T15:36:19;21.00;79.50
26821;DHT22;37186;51.394;5.454;2023-07-31T15:39:20;21.00;79.60
26821;DHT22;37186;51.394;5.454;2023-07-31T15:42:20;21.00;79.20
26821;DHT22;37186;51.394;5.454;2023-07-31T15:45:21;20.90;79.30
26821;DHT22;37186;51.394;5.454;2023-07-31T15:48:21;20.90;79.40
26821;DHT22;37186;51.394;5.454;2023-07-31T15:51:23;20.90;79.50
26821;DHT22;37186;51.394;5.454;2023-07-31T15:54:24;20.90;79.30
26821;DHT22;37186;51.394;5.454;2023-07-31T15:57:24;20.90;79.60
26821;DHT22;37186;51.394;5.454;2023-07-31T16:00:25;20.90;79.70
26821;DHT22;37186;51.394;5.454;2023-07-31T16:03:25;20.90;79.40
26821;DHT22;37186;51.394;5.454;2023-07-31T16:06:27;20.90;79.40
26821;DHT22;37186;51.394;5.454;2023-07-31T16:09:27;20.90;79.30
26821;DHT22;37186;51.394;5.454;2023-07-31T16:12:28;20.80;79.80
26821;DHT22;37186;51.394;5.454;2023-07-31T16:15:29;20.80;79.80
26821;DHT22;37186;51.394;5.454;2023-07-31T16:18:30;20.80;80.00
26821;DHT22;37186;51.394;5.454;2023-07-31T16:21:30;20.80;79.40
26821;DHT22;37186;51.394;5.454;2023-07-31T16:24:31;20.80;79.90
26821;DHT22;37186;51.394;5.454;2023-07-31T16:27:31;20.80;80.00
26821;DHT22;37186;51.394;5.454;2023-07-31T16:30:32;20.70;79.70
26821;DHT22;37186;51.394;5.454;2023-07-31T16:33:32;20.70;79.60
26821;DHT22;37186;51.394;5.454;2023-07-31T16:36:33;20.70;79.50
26821;DHT22;37186;51.394;5.454;2023-07-31T16:39:34;20.70;79.70
26821;DHT22;37186;51.394;5.454;2023-07-31T16:42:36;20.70;79.60
26821;DHT22;37186;51.394;5.454;2023-07-31T16:45:37;20.70;79.60
26821;DHT22;37186;51.394;5.454;2023-07-31T16:48:37;20.70;79.60
26821;DHT22;37186;51.394;5.454;2023-07-31T16:51:38;20.70;80.10
26821;DHT22;37186;51.394;5.454;2023-07-31T16:54:38;20.70;79.80
26821;DHT22;37186;51.394;5.454;2023-07-31T16:57:39;20.60;79.80
26821;DHT22;37186;51.394;5.454;2023-07-31T17:00:39;20.60;80.00
26821;DHT22;37186;51.394;5.454;2023-07-31T17:03:40;20.60;79.90
26821;DHT22;37186;51.394;5.454;2023-07-31T17:06:40;20.60;80.00
26821;DHT22;37186;51.394;5.454;2023-07-31T17:09:41;20.60;80.80
26821;DHT22;37186;51.394;5.454;2023-07-31T17:12:42;20.60;80.40
26821;DHT22;37186;51.394;5.454;2023-07-31T17:15:43;20.60;80.00
26821;DHT22;37186;51.394;5.454;2023-07-31T17:18:43;20.60;80.00
26821;DHT22;37186;51.394;5.454;2023-07-31T17:21:44;20.60;80.60
26821;DHT22;37186;51.394;5.454;2023-07-31T17:24:44;20.60;81.00
26821;DHT22;37186;51.394;5.454;2023-07-31T17:27:45;20.60;80.10
26821;DHT22;37186;51.394;5.454;2023-07-31T17:30:47;20.60;80.30
26821;DHT22;37186;51.394;5.454;2023-07-31T17:33:48;20.50;80.10
26821;DHT22;37186;51.394;5.454;2023-07-31T17:36:48;20.50;80.40
26821;DHT22;37186;51.394;5.454;2023-07-31T17:39:49;20.60;80.70
26821;DHT22;37186;51.394;5.454;2023-07-31T17:42:49;20.50;80.00
26821;DHT22;37186;51.394;5.454;2023-07-31T17:45:51;20.50;80.10
26821;DHT22;37186;51.394;5.454;2023-07-31T17:48:52;20.50;80.10
26821;DHT22;37186;51.394;5.454;2023-07-31T17:51:52;20.50;80.30
26821;DHT22;37186;51.394;5.454;2023-07-31T17:54:53;20.50;80.10
26821;DHT22;37186;51.394;5.454;2023-07-31T17:57:54;20.50;80.30
26821;DHT22;37186;51.394;5.454;2023-07-31T18:00:55;20.50;80.10
26821;DHT22;37186;51.394;5.454;2023-07-31T18:03:55;20.50;80.40
26821;DHT22;37186;51.394;5.454;2023-07-31T18:06:56;20.50;80.40
26821;DHT22;37186;51.394;5.454;2023-07-31T18:09:56;20.50;81.00
26821;DHT22;37186;51.394;5.454;2023-07-31T18:12:57;20.50;80.50
26821;DHT22;37186;51.394;5.454;2023-07-31T18:15:57;20.50;80.30
26821;DHT22;37186;51.394;5.454;2023-07-31T18:18:58;20.50;80.20
26821;DHT22;37186;51.394;5.454;2023-07-31T18:21:58;20.50;80.70
26821;DHT22;37186;51.394;5.454;2023-07-31T18:24:59;20.50;80.60
26821;DHT22;37186;51.394;5.454;2023-07-31T18:27:59;20.50;80.50
26821;DHT22;37186;51.394;5.454;2023-07-31T18:31:01;20.40;80.40
26821;DHT22;37186;51.394;5.454;2023-07-31T18:34:01;20.40;81.10
26821;DHT22;37186;51.394;5.454;2023-07-31T18:37:02;20.40;80.20
26821;DHT22;37186;51.394;5.454;2023-07-31T18:40:05;20.40;80.20
26821;DHT22;37186;51.394;5.454;2023-07-31T18:43:05;20.40;80.40
26821;DHT22;37186;51.394;5.454;2023-07-31T18:46:06;20.40;80.50
26821;DHT22;37186;51.394;5.454;2023-07-31T18:49:06;20.40;80.50
26821;DHT22;37186;51.394;5.454;2023-07-31T18:52:07;20.40;80.60
26821;DHT22;37186;51.394;5.454;2023-07-31T18:55:08;20.40;80.50
26821;DHT22;37186;51.394;5.454;2023-07-31T18:58:09;20.40;80.50
26821;DHT22;37186;51.394;5.454;2023-07-31T19:01:09;20.40;80.50
26821;DHT22;37186;51.394;5.454;2023-07-31T19:04:10;20.40;80.50
26821;DHT22;37186;51.394;5.454;2023-07-31T19:07:11;20.40;80.50
26821;DHT22;37186;51.394;5.454;2023-07-31T19:10:11;20.40;80.40